Terminal Aerodrome Forecast
Issued by NWS

Home | Current Version | Previous Version | Text Only | Print | Product List | Glossary On
Versions: 1 2 3 4 5 6 7 8 9 10 11 12 13 14 15
000
FTUS42 TJSJ 281900 AAA
TAFJBQ
TAF AMD
TJBQ 281915Z 2819/0118 10018G25KT P6SM FEW020 SCT025
     FM010000 10010KT P6SM VCSH FEW030
     FM011400 08013KT P6SM SCT025
      AMD NOT SKED 0102/0111=

USA.gov is the U.S. government's official web portal to all federal, state and local government web resources and services.